createdAt,value
2019-02-26T00:04:14.883Z,6.50
2019-02-26T00:10:22.298Z,7.63
2019-02-26T00:16:25.849Z,7.77
2019-02-26T00:22:32.254Z,6.80
2019-02-26T00:28:39.242Z,7.70
2019-02-26T00:34:43.239Z,8.20
2019-02-26T00:40:47.804Z,9.27
2019-02-26T00:46:53.589Z,9.93
2019-02-26T00:52:59.321Z,9.30
2019-02-26T00:59:05.116Z,9.50
2019-02-26T01:05:11.317Z,9.77
2019-02-26T01:11:16.862Z,9.10
2019-02-26T01:17:21.574Z,9.60
2019-02-26T01:23:26.793Z,9.93
2019-02-26T01:29:32.552Z,9.40
2019-02-26T01:35:37.755Z,8.83
2019-02-26T01:41:45.463Z,10.13
2019-02-26T01:47:50.449Z,10.00
2019-02-26T01:53:55.085Z,8.90
2019-02-26T02:00:00.479Z,10.33
2019-02-26T02:06:06.264Z,9.10
2019-02-26T02:12:11.482Z,8.83
2019-02-26T02:18:17.975Z,8.27
2019-02-26T02:24:24.504Z,8.13
2019-02-26T02:30:31.477Z,8.27
2019-02-26T02:36:35.375Z,8.90
2019-02-26T02:42:40.821Z,8.80
2019-02-26T02:48:46.435Z,9.00
2019-02-26T02:54:51.872Z,8.70
2019-02-26T03:00:57.980Z,7.80
2019-02-26T03:07:03.257Z,9.17
2019-02-26T03:13:07.940Z,9.63
2019-02-26T03:19:14.612Z,7.63
2019-02-26T03:25:22.977Z,8.63
2019-02-26T03:31:29.251Z,9.40
2019-02-26T03:37:34.654Z,8.70
2019-02-26T03:43:39.292Z,7.57
2019-02-26T03:49:44.995Z,8.90
2019-02-26T03:55:49.988Z,9.23
2019-02-26T04:01:54.613Z,9.47
2019-02-26T04:08:01.698Z,10.90
2019-02-26T04:14:12.125Z,9.97
2019-02-26T04:20:15.126Z,8.97
2019-02-26T04:26:48.816Z,9.50
2019-02-26T04:33:11.428Z,10.17
2019-02-26T04:39:49.926Z,9.10
2019-02-26T04:46:08.496Z,8.87
2019-02-26T04:52:17.374Z,9.43
2019-02-26T04:58:22.721Z,8.50
2019-02-26T05:04:28.118Z,9.07
2019-02-26T05:10:34.391Z,8.23
2019-02-26T05:16:40.327Z,9.03
2019-02-26T05:22:45.128Z,9.43
2019-02-26T05:28:51.537Z,8.30
2019-02-26T05:34:56.195Z,8.20
2019-02-26T05:41:00.752Z,8.13
2019-02-26T05:47:05.534Z,8.60
2019-02-26T05:53:12.718Z,8.43
2019-02-26T05:59:18.069Z,7.60
2019-02-26T06:05:24.075Z,11.07
2019-02-26T06:11:33.286Z,9.17
2019-02-26T06:17:40.559Z,10.27
2019-02-26T06:23:43.779Z,10.77
2019-02-26T06:29:48.340Z,9.90
2019-02-26T06:35:54.797Z,10.43
2019-02-26T06:41:59.354Z,8.93
2019-02-26T06:48:04.011Z,9.33
2019-02-26T06:54:08.696Z,12.97
2019-02-26T07:00:19.710Z,13.03
2019-02-26T07:06:25.577Z,11.30
2019-02-26T07:12:29.991Z,9.27
2019-02-26T07:18:34.668Z,9.93
2019-02-26T07:24:41.209Z,10.20
2019-02-26T07:30:46.916Z,10.67
2019-02-26T07:36:52.549Z,11.87
2019-02-26T07:42:57.266Z,11.97
2019-02-26T07:49:04.249Z,12.97
2019-02-26T07:55:12.019Z,15.80
2019-02-26T08:01:17.104Z,16.57
2019-02-26T08:07:23.898Z,17.53
2019-02-26T08:13:29.849Z,16.33
2019-02-26T08:19:36.793Z,17.50
2019-02-26T08:25:41.013Z,15.80
2019-02-26T08:31:47.455Z,17.57
2019-02-26T08:37:51.936Z,11.67
2019-02-26T08:43:58.711Z,10.60
2019-02-26T08:50:06.468Z,9.53
2019-02-26T08:56:10.479Z,9.10
2019-02-26T09:02:34.449Z,10.67
2019-02-26T09:08:40.663Z,10.70
2019-02-26T09:14:47.634Z,10.57
2019-02-26T09:20:51.792Z,9.80
2019-02-26T09:26:57.552Z,10.97
2019-02-26T09:33:03.417Z,11.83
2019-02-26T09:39:10.760Z,10.00
2019-02-26T09:45:25.408Z,10.40
2019-02-26T09:51:30.625Z,9.97
2019-02-26T09:57:35.412Z,10.87
2019-02-26T10:03:41.451Z,10.67
2019-02-26T10:09:48.475Z,10.73
2019-02-26T10:15:52.401Z,10.57
2019-02-26T10:21:59.460Z,10.50
2019-02-26T10:28:08.707Z,10.87
2019-02-26T10:34:12.434Z,9.40
2019-02-26T10:40:17.153Z,11.63
2019-02-26T10:46:22.901Z,11.23
2019-02-26T10:52:28.683Z,11.30
2019-02-26T10:58:33.526Z,10.10
2019-02-26T11:04:41.348Z,10.43
2019-02-26T11:10:46.972Z,10.93
2019-02-26T11:16:51.263Z,10.63
2019-02-26T11:22:55.831Z,10.50
2019-02-26T11:29:01.293Z,10.20
2019-02-26T11:35:14.671Z,13.00
2019-02-26T11:41:19.545Z,11.90
2019-02-26T11:47:24.202Z,11.93
2019-02-26T11:53:29.860Z,13.00
2019-02-26T11:59:35.691Z,12.30
2019-02-26T12:05:41.904Z,12.80
2019-02-26T12:11:46.527Z,12.80
2019-02-26T12:17:51.879Z,12.37
2019-02-26T12:24:01.535Z,13.70
2019-02-26T12:30:13.175Z,11.80
2019-02-26T12:36:16.771Z,11.40
2019-02-26T12:42:21.748Z,12.80
2019-02-26T12:48:26.682Z,11.90
2019-02-26T12:54:33.498Z,11.90
2019-02-26T13:00:41.275Z,11.40
2019-02-26T13:06:47.741Z,12.80
2019-02-26T13:12:55.036Z,10.90
2019-02-26T13:19:00.801Z,12.03
2019-02-26T13:25:08.254Z,11.17
2019-02-26T13:31:13.391Z,10.30
2019-02-26T13:37:16.964Z,11.90
2019-02-26T13:43:21.626Z,12.70
2019-02-26T13:49:26.186Z,11.30
2019-02-26T13:55:31.083Z,11.67
2019-02-26T14:01:35.881Z,12.07
2019-02-26T14:07:40.651Z,12.13
2019-02-26T14:13:45.493Z,12.20
2019-02-26T14:19:51.103Z,13.80
2019-02-26T14:25:56.108Z,13.73
2019-02-26T14:32:00.866Z,12.47
2019-02-26T14:38:05.534Z,13.37
2019-02-26T14:44:10.203Z,12.17
2019-02-26T14:50:22.486Z,12.30
2019-02-26T14:56:27.180Z,11.70
2019-02-26T15:02:32.171Z,11.47
2019-02-26T15:08:37.037Z,10.90
2019-02-26T15:14:42.327Z,11.80
2019-02-26T15:20:47.035Z,11.13
2019-02-26T15:26:51.629Z,10.30
2019-02-26T15:32:56.273Z,8.63
2019-02-26T15:39:02.399Z,10.40
2019-02-26T15:45:25.293Z,9.93
2019-02-26T15:51:30.484Z,9.97
2019-02-26T15:57:35.406Z,11.00
2019-02-26T16:03:40.212Z,12.40
2019-02-26T16:09:44.795Z,10.00
2019-02-26T16:15:49.388Z,11.13
2019-02-26T16:21:54.012Z,11.13
2019-02-26T16:27:58.645Z,11.13
2019-02-26T16:34:03.470Z,12.27
2019-02-26T16:40:12.032Z,9.80
2019-02-26T16:46:16.698Z,8.67
2019-02-26T16:52:21.683Z,9.67
2019-02-26T16:58:26.288Z,7.70
2019-02-26T17:04:31.299Z,6.60
2019-02-26T17:10:35.954Z,7.73
2019-02-26T17:16:40.799Z,7.27
2019-02-26T17:22:45.459Z,7.10
2019-02-26T17:28:50.256Z,6.60
2019-02-26T17:34:55.773Z,7.67
2019-02-26T17:41:01.035Z,6.30
2019-02-26T17:47:05.693Z,6.30
2019-02-26T17:53:10.312Z,6.57
2019-02-26T17:59:16.913Z,5.40
2019-02-26T18:05:21.580Z,6.17
2019-02-26T18:11:26.174Z,6.17
2019-02-26T18:17:30.737Z,5.43
2019-02-26T18:23:37.517Z,6.10
2019-02-26T18:29:41.803Z,6.40
2019-02-26T18:35:46.354Z,6.17
2019-02-26T18:41:51.018Z,7.63
2019-02-26T18:47:55.658Z,8.13
2019-02-26T18:54:00.498Z,6.93
2019-02-26T19:00:08.805Z,7.73
2019-02-26T19:06:13.493Z,8.17
2019-02-26T19:12:18.604Z,8.70
2019-02-26T19:18:23.484Z,8.03
2019-02-26T19:24:28.239Z,8.40
2019-02-26T19:30:36.757Z,8.03
2019-02-26T19:36:39.845Z,8.83
2019-02-26T19:42:44.626Z,8.50
2019-02-26T19:48:49.252Z,7.43
2019-02-26T19:54:53.915Z,8.53
2019-02-26T20:00:58.654Z,8.67
2019-02-26T20:07:03.376Z,7.77
2019-02-26T20:13:12.556Z,7.80
2019-02-26T20:19:14.440Z,7.80
2019-02-26T20:25:20.807Z,8.37
2019-02-26T20:31:25.463Z,8.90
2019-02-26T20:37:30.132Z,8.33
2019-02-26T20:43:36.919Z,7.50
2019-02-26T20:49:41.142Z,8.53
2019-02-26T20:55:52.267Z,8.47
2019-02-26T21:01:52.216Z,8.43
2019-02-26T21:07:58.746Z,8.03
2019-02-26T21:14:03.264Z,8.27
2019-02-26T21:20:12.656Z,9.23
2019-02-26T21:26:19.323Z,7.63
2019-02-26T21:32:25.674Z,9.77
2019-02-26T21:38:30.084Z,8.50
2019-02-26T21:44:34.737Z,9.07
2019-02-26T21:50:39.301Z,8.40
2019-02-26T21:56:43.859Z,9.73
2019-02-26T22:02:52.130Z,9.43
2019-02-26T22:08:56.967Z,9.20
2019-02-26T22:15:01.764Z,10.03
2019-02-26T22:21:06.375Z,9.00
2019-02-26T22:27:10.969Z,10.90
2019-02-26T22:33:15.597Z,9.90
2019-02-26T22:39:22.689Z,9.13
2019-02-26T22:45:27.990Z,11.67
2019-02-26T22:51:33.211Z,9.53
2019-02-26T22:57:38.208Z,9.10
2019-02-26T23:03:45.734Z,9.10
2019-02-26T23:09:52.041Z,9.03
2019-02-26T23:15:56.064Z,9.20
2019-02-26T23:22:00.842Z,10.77
2019-02-26T23:28:05.810Z,13.80
2019-02-26T23:34:10.644Z,9.13
2019-02-26T23:40:15.640Z,11.97
2019-02-26T23:46:20.290Z,12.00
2019-02-26T23:52:27.595Z,10.07
2019-02-26T23:58:31.678Z,12.30
